createdAt,value
2019-04-22T00:01:05.800Z,13.85
2019-04-22T00:03:49.733Z,13.82
2019-04-22T00:06:39.285Z,13.69
2019-04-22T00:09:19.184Z,13.64
2019-04-22T00:11:59.247Z,13.67
2019-04-22T00:14:30.923Z,13.45
2019-04-22T00:17:16.670Z,13.51
2019-04-22T00:19:55.520Z,13.45
2019-04-22T00:22:27.424Z,13.37
2019-04-22T00:25:03.371Z,13.27
2019-04-22T00:27:41.179Z,13.37
2019-04-22T00:30:16.548Z,13.26
2019-04-22T00:33:04.780Z,13.19
2019-04-22T00:35:38.059Z,13.30
2019-04-22T00:38:17.226Z,13.11
2019-04-22T00:40:56.221Z,13.11
2019-04-22T00:43:37.510Z,13.11
2019-04-22T00:46:11.314Z,12.90
2019-04-22T00:49:07.054Z,13.11
2019-04-22T00:51:22.487Z,12.96
2019-04-22T00:54:03.824Z,12.98
2019-04-22T00:56:35.666Z,12.93
2019-04-22T00:59:13.160Z,12.81
2019-04-22T01:01:57.684Z,12.92
2019-04-22T01:04:34.787Z,12.81
2019-04-22T01:07:03.615Z,12.78
2019-04-22T01:09:46.528Z,12.83
2019-04-22T01:12:26.341Z,12.71
2019-04-22T01:15:05.861Z,12.74
2019-04-22T01:17:41.772Z,12.53
2019-04-22T01:22:48.967Z,12.45
2019-04-22T01:25:26.308Z,12.54
2019-04-22T01:27:57.180Z,12.48
2019-04-22T01:30:30.357Z,12.41
2019-04-22T01:33:05.669Z,12.39
2019-04-22T01:35:53.882Z,12.29
2019-04-22T01:38:31.339Z,12.36
2019-04-22T01:41:16.426Z,12.27
2019-04-22T01:44:00.615Z,12.15
2019-04-22T01:46:31.813Z,12.15
2019-04-22T01:49:12.562Z,12.16
2019-04-22T01:51:51.798Z,12.12
2019-04-22T01:54:22.223Z,12.03
2019-04-22T01:56:52.629Z,11.99
2019-04-22T01:59:29.115Z,11.98
2019-04-22T02:02:10.562Z,11.92
2019-04-22T02:04:51.416Z,11.81
2019-04-22T02:07:25.391Z,11.84
2019-04-22T02:09:56.030Z,11.78
2019-04-22T02:15:13.806Z,11.78
2019-04-22T02:17:56.856Z,11.79
2019-04-22T02:20:25.305Z,11.80
2019-04-22T02:23:45.875Z,11.78
2019-04-22T02:28:39.987Z,11.78
2019-04-22T02:39:17.459Z,11.90
2019-04-22T02:41:49.752Z,11.84
2019-04-22T02:44:29.748Z,11.66
2019-04-22T02:47:15.686Z,11.71
2019-04-22T02:52:25.831Z,11.75
2019-04-22T02:57:35.253Z,11.73
2019-04-22T03:00:18.404Z,11.65
2019-04-22T03:03:03.871Z,11.66
2019-04-22T03:05:41.066Z,11.55
2019-04-22T03:08:23.580Z,11.55
2019-04-22T03:16:10.779Z,11.51
2019-04-22T03:21:16.038Z,11.54
2019-04-22T03:29:04.551Z,11.38
2019-04-22T03:37:21.361Z,11.28
2019-04-22T03:45:10.174Z,11.34
2019-04-22T03:50:22.719Z,11.28
2019-04-22T03:55:30.564Z,11.26
2019-04-22T03:58:11.059Z,11.05
2019-04-22T04:06:00.200Z,10.91
2019-04-22T04:08:33.509Z,11.03
2019-04-22T04:11:07.076Z,11.09
2019-04-22T04:14:03.468Z,11.00
2019-04-22T04:16:30.718Z,11.09
2019-04-22T04:21:41.865Z,10.95
2019-04-22T04:32:30.980Z,10.89
2019-04-22T04:37:42.265Z,10.94
2019-04-22T04:40:11.645Z,11.10
2019-04-22T04:42:53.751Z,10.90
2019-04-22T04:45:31.972Z,10.92
2019-04-22T04:50:47.375Z,11.07
2019-04-22T04:53:23.209Z,11.04
2019-04-22T04:56:10.786Z,10.92
2019-04-22T05:09:22.437Z,11.31
2019-04-22T05:12:08.712Z,11.17
2019-04-22T05:14:26.506Z,11.25
2019-04-22T05:17:15.745Z,11.44
2019-04-22T05:19:41.256Z,11.60
2019-04-22T05:24:53.328Z,11.66
2019-04-22T05:27:37.727Z,11.73
2019-04-22T05:30:23.770Z,11.78
2019-04-22T05:32:55.229Z,11.90
2019-04-22T05:35:23.123Z,11.92
2019-04-22T05:38:04.512Z,12.02
2019-04-22T05:40:34.447Z,12.10
2019-04-22T05:43:09.346Z,12.18
2019-04-22T05:45:42.993Z,12.27
2019-04-22T05:48:27.362Z,12.42
2019-04-22T05:51:04.452Z,12.47
2019-04-22T05:53:40.289Z,12.58
2019-04-22T05:56:23.872Z,12.67
2019-04-22T06:01:38.812Z,12.84
2019-04-22T06:06:45.352Z,13.03
2019-04-22T06:09:27.474Z,13.27
2019-04-22T06:11:55.457Z,13.39
2019-04-22T06:14:40.373Z,13.40
2019-04-22T06:17:24.728Z,13.53
2019-04-22T06:20:00.606Z,13.70
2019-04-22T06:25:24.529Z,13.93
2019-04-22T06:27:53.926Z,14.01
2019-04-22T06:30:41.457Z,14.08
2019-04-22T06:33:05.834Z,14.13
2019-04-22T06:35:57.890Z,14.17
2019-04-22T06:38:32.968Z,14.32
2019-04-22T06:41:04.506Z,14.45
2019-04-22T06:43:34.948Z,14.46
2019-04-22T06:46:16.974Z,14.60
2019-04-22T06:48:47.928Z,14.67
2019-04-22T06:51:29.195Z,14.72
2019-04-22T06:54:03.390Z,14.81
2019-04-22T06:56:43.068Z,14.89
2019-04-22T06:59:18.866Z,14.99
2019-04-22T07:01:59.829Z,15.10
2019-04-22T07:04:27.960Z,15.15
2019-04-22T07:07:08.111Z,15.16
2019-04-22T07:09:48.711Z,15.24
2019-04-22T07:12:24.353Z,15.33
2019-04-22T07:15:01.690Z,15.42
2019-04-22T07:17:39.431Z,15.51
2019-04-22T07:20:10.555Z,15.75
2019-04-22T07:22:45.549Z,15.75
2019-04-22T07:25:23.414Z,15.86
2019-04-22T07:27:58.326Z,15.93
2019-04-22T07:30:40.981Z,15.93
2019-04-22T07:33:22.914Z,16.07
2019-04-22T07:36:10.779Z,16.13
2019-04-22T07:38:26.894Z,16.07
2019-04-22T07:41:02.153Z,16.16
2019-04-22T07:43:59.832Z,16.44
2019-04-22T07:46:19.850Z,16.67
2019-04-22T07:49:00.067Z,16.64
2019-04-22T07:51:32.965Z,16.74
2019-04-22T07:54:11.163Z,16.87
2019-04-22T07:56:50.684Z,17.04
2019-04-22T08:00:05.558Z,17.12
2019-04-22T08:02:37.439Z,17.18
2019-04-22T08:05:12.415Z,17.28
2019-04-22T08:07:51.453Z,17.29
2019-04-22T08:10:31.410Z,17.38
2019-04-22T08:13:06.591Z,17.49
2019-04-22T08:18:17.427Z,17.79
2019-04-22T08:20:55.460Z,18.05
2019-04-22T08:23:39.910Z,18.31
2019-04-22T08:26:13.531Z,18.37
2019-04-22T08:28:56.049Z,18.43
2019-04-22T08:31:32.050Z,18.55
2019-04-22T08:34:02.082Z,18.70
2019-04-22T08:37:10.314Z,18.79
2019-04-22T08:39:21.741Z,18.94
2019-04-22T08:41:50.899Z,18.88
2019-04-22T08:44:52.092Z,18.99
2019-04-22T08:47:29.176Z,19.10
2019-04-22T08:49:50.766Z,19.34
2019-04-22T08:53:06.181Z,19.28
2019-04-22T08:55:41.800Z,19.36
2019-04-22T08:58:21.679Z,19.51
2019-04-22T09:00:52.845Z,19.55
2019-04-22T09:03:27.579Z,19.62
2019-04-22T09:06:04.802Z,19.72
2019-04-22T09:08:42.328Z,19.77
2019-04-22T09:11:25.233Z,19.95
2019-04-22T09:13:57.268Z,20.07
2019-04-22T09:16:33.316Z,20.20
2019-04-22T09:19:05.724Z,20.31
2019-04-22T09:21:45.472Z,20.30
2019-04-22T09:24:23.641Z,20.34
2019-04-22T09:27:18.753Z,20.40
2019-04-22T09:30:06.333Z,20.54
2019-04-22T09:35:16.889Z,20.76
2019-04-22T09:37:57.299Z,20.74
2019-04-22T09:40:31.534Z,20.97
2019-04-22T09:43:11.430Z,21.05
2019-04-22T09:45:48.007Z,21.20
2019-04-22T09:48:32.673Z,21.28
2019-04-22T09:51:00.458Z,21.37
2019-04-22T09:53:47.251Z,21.30
2019-04-22T09:56:19.390Z,21.41
2019-04-22T09:58:58.964Z,21.38
2019-04-22T10:04:20.157Z,21.64
2019-04-22T10:06:40.550Z,21.76
2019-04-22T10:11:56.349Z,21.99
2019-04-22T10:14:38.399Z,22.00
2019-04-22T10:17:15.482Z,22.32
2019-04-22T10:20:06.794Z,22.23
2019-04-22T10:22:35.547Z,22.21
2019-04-22T10:25:08.693Z,22.36
2019-04-22T10:27:45.623Z,22.46
2019-04-22T10:30:24.561Z,22.38
2019-04-22T10:32:52.321Z,22.60
2019-04-22T10:35:17.107Z,22.53
2019-04-22T10:37:50.236Z,22.65
2019-04-22T10:40:36.309Z,22.57
2019-04-22T10:43:12.099Z,22.69
2019-04-22T10:45:48.099Z,22.86
2019-04-22T10:48:24.109Z,22.94
2019-04-22T10:51:00.630Z,22.93
2019-04-22T10:53:37.406Z,22.98
2019-04-22T10:56:12.774Z,22.96
2019-04-22T10:58:48.922Z,23.07
2019-04-22T11:01:25.666Z,23.27
2019-04-22T11:04:01.540Z,23.26
2019-04-22T11:06:40.926Z,23.29
2019-04-22T11:09:16.583Z,23.18
2019-04-22T11:12:01.427Z,23.35
2019-04-22T11:14:28.852Z,23.88
2019-04-22T11:17:05.649Z,24.32
2019-04-22T11:19:41.577Z,24.67
2019-04-22T11:22:26.510Z,24.99
2019-04-22T11:24:59.924Z,25.02
2019-04-22T11:27:35.230Z,25.04
2019-04-22T11:30:11.426Z,25.62
2019-04-22T11:32:46.652Z,25.69
2019-04-22T11:35:22.018Z,25.78
2019-04-22T11:37:56.945Z,25.64
2019-04-22T11:40:38.416Z,26.09
2019-04-22T11:43:12.401Z,26.89
2019-04-22T11:45:51.287Z,26.82
2019-04-22T11:48:27.025Z,27.26
2019-04-22T11:51:02.409Z,27.37
2019-04-22T11:53:38.644Z,27.45
2019-04-22T11:56:14.125Z,27.60
2019-04-22T11:58:49.125Z,27.99
2019-04-22T12:01:24.664Z,28.18
2019-04-22T12:03:59.972Z,28.43
2019-04-22T12:06:36.011Z,28.70
2019-04-22T12:09:13.555Z,28.72
2019-04-22T12:11:49.507Z,28.65
2019-04-22T12:14:25.788Z,28.45
2019-04-22T12:17:03.727Z,28.47
2019-04-22T12:19:40.097Z,29.04
2019-04-22T12:22:15.448Z,28.52
2019-04-22T12:24:50.482Z,28.78
2019-04-22T12:27:26.769Z,29.16
2019-04-22T12:30:02.997Z,29.05
2019-04-22T12:32:39.174Z,29.71
2019-04-22T12:35:15.665Z,29.61
2019-04-22T12:37:55.634Z,29.71
2019-04-22T12:40:38.250Z,29.73
2019-04-22T12:43:06.195Z,29.79
2019-04-22T12:45:42.435Z,30.08
2019-04-22T12:48:18.981Z,29.65
2019-04-22T12:50:56.459Z,29.59
2019-04-22T12:53:31.966Z,30.85
2019-04-22T12:56:09.194Z,31.11
2019-04-22T12:58:45.574Z,31.33
2019-04-22T13:01:21.237Z,31.25
2019-04-22T13:04:03.189Z,31.29
2019-04-22T13:06:33.325Z,31.00
2019-04-22T13:09:10.535Z,31.07
2019-04-22T13:11:45.987Z,30.92
2019-04-22T13:14:21.288Z,31.38
2019-04-22T13:16:57.599Z,31.91
2019-04-22T13:19:33.965Z,32.13
2019-04-22T13:22:09.322Z,31.81
2019-04-22T13:24:45.738Z,32.68
2019-04-22T13:27:21.247Z,31.95
2019-04-22T13:29:57.131Z,32.67
2019-04-22T13:32:32.494Z,32.33
2019-04-22T13:35:08.994Z,32.83
2019-04-22T13:37:44.306Z,33.81
2019-04-22T13:40:21.071Z,33.60
2019-04-22T13:42:56.133Z,32.81
2019-04-22T13:45:31.808Z,33.71
2019-04-22T13:48:24.108Z,33.71
2019-04-22T13:51:15.097Z,33.34
2019-04-22T13:54:18.866Z,33.84
2019-04-22T13:56:19.369Z,34.86
2019-04-22T13:58:52.406Z,35.01
2019-04-22T14:01:18.618Z,35.14
2019-04-22T14:04:04.901Z,34.62
2019-04-22T14:06:40.765Z,35.11
2019-04-22T14:09:17.210Z,34.74
2019-04-22T14:11:58.595Z,34.35
2019-04-22T14:14:30.255Z,34.11
2019-04-22T14:17:07.047Z,34.75
2019-04-22T14:19:44.763Z,34.37
2019-04-22T14:22:22.039Z,34.98
2019-04-22T14:24:58.662Z,34.68
2019-04-22T14:27:46.202Z,34.95
2019-04-22T14:30:12.547Z,34.97
2019-04-22T14:32:49.082Z,34.71
2019-04-22T14:35:25.003Z,33.69
2019-04-22T14:38:01.402Z,33.26
2019-04-22T14:40:37.254Z,33.65
2019-04-22T14:43:45.722Z,33.42
2019-04-22T14:48:49.827Z,33.26
2019-04-22T14:51:20.525Z,32.99
2019-04-22T14:54:00.024Z,34.08
2019-04-22T14:56:18.138Z,34.06
2019-04-22T14:59:29.208Z,33.41
2019-04-22T15:02:05.818Z,33.06
2019-04-22T15:04:41.600Z,32.71
2019-04-22T15:07:19.181Z,31.78
2019-04-22T15:10:29.853Z,32.03
2019-04-22T15:13:05.440Z,31.57
2019-04-22T15:16:05.836Z,31.30
2019-04-22T15:18:45.972Z,30.93
2019-04-22T15:21:23.029Z,31.21
2019-04-22T15:24:02.412Z,30.73
2019-04-22T15:26:38.201Z,30.10
2019-04-22T15:29:13.712Z,29.61
2019-04-22T15:31:49.295Z,29.42
2019-04-22T15:34:30.359Z,28.26
2019-04-22T15:37:06.496Z,28.02
2019-04-22T15:39:41.855Z,28.25
2019-04-22T15:42:22.713Z,28.09
2019-04-22T15:44:53.960Z,28.22
2019-04-22T15:47:29.304Z,27.99
2019-04-22T15:50:05.992Z,28.38
2019-04-22T15:52:47.880Z,28.94
2019-04-22T15:55:18.735Z,30.19
2019-04-22T15:57:54.048Z,29.90
2019-04-22T16:00:44.557Z,30.04
2019-04-22T16:03:12.506Z,29.95
2019-04-22T16:05:48.072Z,30.39
2019-04-22T16:08:24.732Z,31.01
2019-04-22T16:11:00.045Z,30.72
2019-04-22T16:13:37.997Z,31.06
2019-04-22T16:16:12.506Z,30.52
2019-04-22T16:18:48.599Z,30.22
2019-04-22T16:21:33.813Z,29.50
2019-04-22T16:24:20.217Z,29.60
2019-04-22T16:27:20.644Z,29.30
2019-04-22T16:29:57.142Z,29.30
2019-04-22T16:32:33.732Z,29.59
2019-04-22T16:35:10.531Z,30.24
2019-04-22T16:37:46.570Z,30.22
2019-04-22T16:40:22.839Z,30.35
2019-04-22T16:43:02.369Z,29.99
2019-04-22T16:45:40.063Z,29.97
2019-04-22T16:48:15.826Z,29.36
2019-04-22T16:50:52.805Z,30.00
2019-04-22T16:53:29.457Z,30.55
2019-04-22T16:56:11.180Z,30.82
2019-04-22T16:58:46.517Z,30.91
2019-04-22T17:01:56.635Z,31.96
2019-04-22T17:05:05.130Z,31.20
2019-04-22T17:07:40.347Z,30.97
2019-04-22T17:10:17.774Z,30.70
2019-04-22T17:13:01.553Z,29.64
2019-04-22T17:15:31.218Z,29.15
2019-04-22T17:18:07.420Z,27.64
2019-04-22T17:20:42.681Z,27.11
2019-04-22T17:23:17.831Z,25.84
2019-04-22T17:25:54.427Z,24.97
2019-04-22T17:28:31.189Z,24.69
2019-04-22T17:31:08.738Z,24.02
2019-04-22T17:33:44.680Z,24.27
2019-04-22T17:36:20.270Z,24.41
2019-04-22T17:39:43.546Z,24.74
2019-04-22T17:42:25.185Z,24.33
2019-04-22T17:45:22.018Z,24.28
2019-04-22T17:48:18.235Z,24.39
2019-04-22T17:51:03.091Z,24.98
2019-04-22T17:53:34.841Z,24.76
2019-04-22T17:56:15.659Z,24.15
2019-04-22T17:58:46.391Z,23.53
2019-04-22T18:01:24.975Z,22.84
2019-04-22T18:03:48.581Z,22.62
2019-04-22T18:06:45.270Z,22.06
2019-04-22T18:09:14.618Z,22.21
2019-04-22T18:11:51.220Z,21.77
2019-04-22T18:14:43.393Z,21.71
2019-04-22T18:17:07.061Z,21.56
2019-04-22T18:19:43.057Z,21.19
2019-04-22T18:22:38.154Z,21.24
2019-04-22T18:25:20.339Z,21.16
2019-04-22T18:28:15.070Z,20.81
2019-04-22T18:30:34.756Z,20.50
2019-04-22T18:33:18.592Z,20.54
2019-04-22T18:35:54.017Z,20.31
2019-04-22T18:38:39.738Z,20.15
2019-04-22T18:41:05.029Z,20.05
2019-04-22T18:43:47.758Z,20.01
2019-04-22T18:46:25.416Z,19.92
2019-04-22T18:49:00.684Z,19.89
2019-04-22T18:52:05.861Z,19.67
2019-04-22T18:54:48.419Z,19.73
2019-04-22T18:57:23.721Z,19.63
2019-04-22T18:59:45.305Z,19.54
2019-04-22T19:02:23.593Z,19.31
2019-04-22T19:05:08.459Z,19.42
2019-04-22T19:08:00.676Z,19.32
2019-04-22T19:10:46.330Z,19.27
2019-04-22T19:13:34.810Z,19.15
2019-04-22T19:15:54.322Z,19.02
2019-04-22T19:18:29.833Z,18.98
2019-04-22T19:21:02.694Z,18.96
2019-04-22T19:23:43.438Z,19.00
2019-04-22T19:26:28.812Z,18.81
2019-04-22T19:28:49.469Z,18.79
2019-04-22T19:31:43.857Z,18.88
2019-04-22T19:34:03.009Z,18.89
2019-04-22T19:36:48.566Z,18.67
2019-04-22T19:39:13.230Z,18.79
2019-04-22T19:42:06.844Z,18.82
2019-04-22T19:44:34.247Z,18.81
2019-04-22T19:49:55.905Z,18.70
2019-04-22T19:52:30.271Z,18.55
2019-04-22T19:55:03.332Z,18.68
2019-04-22T19:57:34.577Z,18.57
2019-04-22T20:00:28.357Z,18.54
2019-04-22T20:03:34.686Z,18.37
2019-04-22T20:06:08.839Z,18.33
2019-04-22T20:08:42.646Z,18.04
2019-04-22T20:11:26.536Z,18.05
2019-04-22T20:13:55.432Z,18.07
2019-04-22T20:16:27.252Z,17.87
2019-04-22T20:19:13.647Z,17.91
2019-04-22T20:21:51.707Z,17.65
2019-04-22T20:24:14.503Z,17.78
2019-04-22T20:27:04.181Z,17.60
2019-04-22T20:29:42.097Z,17.71
2019-04-22T20:32:18.824Z,17.56
2019-04-22T20:34:57.950Z,17.58
2019-04-22T20:37:38.556Z,17.57
2019-04-22T20:40:10.782Z,17.47
2019-04-22T20:42:54.390Z,17.43
2019-04-22T20:45:30.832Z,17.42
2019-04-22T20:47:50.989Z,17.33
2019-04-22T20:50:41.695Z,17.37
2019-04-22T20:53:18.640Z,17.42
2019-04-22T20:55:53.829Z,17.33
2019-04-22T20:58:28.570Z,17.26
2019-04-22T21:00:56.824Z,17.26
2019-04-22T21:03:33.803Z,17.13
2019-04-22T21:06:16.418Z,17.14
2019-04-22T21:09:02.294Z,17.09
2019-04-22T21:11:29.678Z,17.00
2019-04-22T21:14:05.935Z,16.94
2019-04-22T21:16:56.410Z,16.84
2019-04-22T21:19:41.661Z,16.83
2019-04-22T21:22:08.073Z,16.85
2019-04-22T21:24:43.553Z,16.78
2019-04-22T21:27:40.667Z,16.75
2019-04-22T21:29:52.174Z,16.66
2019-04-22T21:32:34.394Z,16.62
2019-04-22T21:35:19.834Z,16.58
2019-04-22T21:38:00.510Z,16.63
2019-04-22T21:40:28.794Z,16.54
2019-04-22T21:43:12.167Z,16.55
2019-04-22T21:45:39.275Z,16.47
2019-04-22T21:48:28.081Z,16.41
2019-04-22T21:50:59.800Z,16.45
2019-04-22T21:53:47.814Z,16.47
2019-04-22T21:56:29.146Z,16.32
2019-04-22T21:58:56.036Z,16.10
2019-04-22T22:01:51.147Z,16.11
2019-04-22T22:04:16.152Z,16.08
2019-04-22T22:06:41.253Z,16.14
2019-04-22T22:10:04.305Z,15.98
2019-04-22T22:12:45.157Z,15.80
2019-04-22T22:15:18.577Z,15.81
2019-04-22T22:17:51.622Z,15.73
2019-04-22T22:21:12.184Z,15.69
2019-04-22T22:23:36.356Z,15.84
2019-04-22T22:26:04.096Z,15.71
2019-04-22T22:28:54.472Z,15.57
2019-04-22T22:31:31.617Z,15.42
2019-04-22T22:34:02.060Z,15.47
2019-04-22T22:36:35.079Z,15.45
2019-04-22T22:39:08.685Z,15.48
2019-04-22T22:41:34.147Z,15.54
2019-04-22T22:44:18.790Z,15.46
2019-04-22T22:47:03.223Z,15.45
2019-04-22T22:49:50.173Z,15.39
2019-04-22T22:54:58.877Z,15.29
2019-04-22T22:57:50.249Z,15.16
2019-04-22T23:00:11.509Z,15.19
2019-04-22T23:03:03.418Z,15.04
2019-04-22T23:05:35.412Z,15.02
2019-04-22T23:08:07.744Z,15.06
2019-04-22T23:10:52.600Z,14.93
2019-04-22T23:13:21.804Z,14.97
2019-04-22T23:15:44.316Z,14.93
2019-04-22T23:18:10.063Z,14.88
2019-04-22T23:20:47.793Z,14.94
2019-04-22T23:23:44.059Z,14.78
2019-04-22T23:26:40.388Z,14.71
2019-04-22T23:29:26.215Z,14.65
2019-04-22T23:32:07.273Z,14.64
2019-04-22T23:34:49.798Z,14.62
2019-04-22T23:37:25.197Z,14.63
2019-04-22T23:40:22.062Z,14.67
2019-04-22T23:42:53.099Z,14.52
2019-04-22T23:45:33.200Z,14.37
2019-04-22T23:48:03.407Z,14.39
2019-04-22T23:50:48.014Z,14.48
2019-04-22T23:53:55.522Z,14.54
2019-04-22T23:56:04.361Z,14.41
2019-04-22T23:58:52.703Z,14.46
